sensor_id;sensor_type;location;lat;lon;timestamp;P1;durP1;ratioP1;P2;durP2;ratioP2
2944;SDS011;1482;51.398;7.128;2022-12-10T00:01:45;69.27;;;35.90;;
2944;SDS011;1482;51.398;7.128;2022-12-10T00:04:12;81.27;;;33.90;;
2944;SDS011;1482;51.398;7.128;2022-12-10T00:06:39;85.27;;;36.73;;
2944;SDS011;1482;51.398;7.128;2022-12-10T00:09:06;85.20;;;37.30;;
2944;SDS011;1482;51.398;7.128;2022-12-10T00:11:36;78.43;;;35.07;;
2944;SDS011;1482;51.398;7.128;2022-12-10T00:14:02;84.73;;;37.60;;
2944;SDS011;1482;51.398;7.128;2022-12-10T00:16:28;77.87;;;36.57;;
2944;SDS011;1482;51.398;7.128;2022-12-10T00:18:55;73.57;;;35.23;;
2944;SDS011;1482;51.398;7.128;2022-12-10T00:21:21;91.53;;;35.73;;
2944;SDS011;1482;51.398;7.128;2022-12-10T00:23:49;70.93;;;35.10;;
2944;SDS011;1482;51.398;7.128;2022-12-10T00:26:16;78.27;;;35.17;;
2944;SDS011;1482;51.398;7.128;2022-12-10T00:28:46;79.17;;;35.00;;
2944;SDS011;1482;51.398;7.128;2022-12-10T00:31:13;75.47;;;35.60;;
2944;SDS011;1482;51.398;7.128;2022-12-10T00:33:40;78.23;;;34.50;;
2944;SDS011;1482;51.398;7.128;2022-12-10T00:36:08;74.87;;;37.50;;
2944;SDS011;1482;51.398;7.128;2022-12-10T00:38:39;84.33;;;36.67;;
2944;SDS011;1482;51.398;7.128;2022-12-10T00:41:05;79.43;;;34.87;;
2944;SDS011;1482;51.398;7.128;2022-12-10T00:43:31;68.97;;;34.20;;
2944;SDS011;1482;51.398;7.128;2022-12-10T00:45:57;68.20;;;33.63;;
2944;SDS011;1482;51.398;7.128;2022-12-10T00:48:23;69.77;;;31.50;;
2944;SDS011;1482;51.398;7.128;2022-12-10T00:50:59;73.53;;;32.97;;
2944;SDS011;1482;51.398;7.128;2022-12-10T00:53:29;75.97;;;34.37;;
2944;SDS011;1482;51.398;7.128;2022-12-10T00:55:56;79.90;;;32.83;;
2944;SDS011;1482;51.398;7.128;2022-12-10T00:58:22;76.70;;;33.80;;
2944;SDS011;1482;51.398;7.128;2022-12-10T01:00:48;73.47;;;32.60;;
2944;SDS011;1482;51.398;7.128;2022-12-10T01:03:14;79.27;;;34.83;;
2944;SDS011;1482;51.398;7.128;2022-12-10T01:05:40;62.83;;;30.10;;
2944;SDS011;1482;51.398;7.128;2022-12-10T01:08:05;76.50;;;37.07;;
2944;SDS011;1482;51.398;7.128;2022-12-10T01:10:31;83.80;;;34.40;;
2944;SDS011;1482;51.398;7.128;2022-12-10T01:12:57;74.80;;;31.30;;
2944;SDS011;1482;51.398;7.128;2022-12-10T01:15:22;72.00;;;35.40;;
2944;SDS011;1482;51.398;7.128;2022-12-10T01:17:48;65.80;;;31.20;;
2944;SDS011;1482;51.398;7.128;2022-12-10T01:20:13;75.57;;;31.50;;
2944;SDS011;1482;51.398;7.128;2022-12-10T01:22:39;79.10;;;37.63;;
2944;SDS011;1482;51.398;7.128;2022-12-10T01:25:05;65.37;;;32.10;;
2944;SDS011;1482;51.398;7.128;2022-12-10T01:27:30;78.33;;;32.80;;
2944;SDS011;1482;51.398;7.128;2022-12-10T01:29:56;73.93;;;33.83;;
2944;SDS011;1482;51.398;7.128;2022-12-10T01:32:22;68.37;;;31.30;;
2944;SDS011;1482;51.398;7.128;2022-12-10T01:34:47;70.97;;;31.10;;
2944;SDS011;1482;51.398;7.128;2022-12-10T01:37:13;77.07;;;34.73;;
2944;SDS011;1482;51.398;7.128;2022-12-10T01:39:38;62.80;;;30.17;;
2944;SDS011;1482;51.398;7.128;2022-12-10T01:42:04;74.17;;;34.70;;
2944;SDS011;1482;51.398;7.128;2022-12-10T01:46:57;72.60;;;32.77;;
2944;SDS011;1482;51.398;7.128;2022-12-10T01:49:26;82.83;;;32.53;;
2944;SDS011;1482;51.398;7.128;2022-12-10T01:51:57;79.10;;;34.37;;
2944;SDS011;1482;51.398;7.128;2022-12-10T01:54:27;82.37;;;34.10;;
2944;SDS011;1482;51.398;7.128;2022-12-10T01:56:59;86.23;;;34.07;;
2944;SDS011;1482;51.398;7.128;2022-12-10T01:59:33;79.77;;;35.57;;
2944;SDS011;1482;51.398;7.128;2022-12-10T02:05:13;81.50;;;33.30;;
2944;SDS011;1482;51.398;7.128;2022-12-10T02:11:14;78.90;;;36.27;;
2944;SDS011;1482;51.398;7.128;2022-12-10T02:13:53;78.40;;;33.00;;
2944;SDS011;1482;51.398;7.128;2022-12-10T02:16:26;94.57;;;36.87;;
2944;SDS011;1482;51.398;7.128;2022-12-10T02:19:13;91.53;;;33.57;;
2944;SDS011;1482;51.398;7.128;2022-12-10T02:24:16;82.20;;;33.83;;
2944;SDS011;1482;51.398;7.128;2022-12-10T02:26:58;75.30;;;34.33;;
2944;SDS011;1482;51.398;7.128;2022-12-10T02:29:37;80.80;;;33.07;;
2944;SDS011;1482;51.398;7.128;2022-12-10T02:32:07;85.70;;;35.27;;
2944;SDS011;1482;51.398;7.128;2022-12-10T02:34:38;79.23;;;34.07;;
2944;SDS011;1482;51.398;7.128;2022-12-10T02:37:09;68.77;;;31.80;;
2944;SDS011;1482;51.398;7.128;2022-12-10T02:39:40;65.40;;;27.37;;
2944;SDS011;1482;51.398;7.128;2022-12-10T02:42:10;59.37;;;26.23;;
2944;SDS011;1482;51.398;7.128;2022-12-10T02:44:38;74.00;;;33.90;;
2944;SDS011;1482;51.398;7.128;2022-12-10T02:47:06;80.60;;;32.10;;
2944;SDS011;1482;51.398;7.128;2022-12-10T02:49:34;61.33;;;27.13;;
2944;SDS011;1482;51.398;7.128;2022-12-10T02:52:13;66.77;;;28.30;;
2944;SDS011;1482;51.398;7.128;2022-12-10T02:54:43;56.47;;;25.50;;
2944;SDS011;1482;51.398;7.128;2022-12-10T03:02:31;66.83;;;30.33;;
2944;SDS011;1482;51.398;7.128;2022-12-10T03:05:53;80.57;;;30.63;;
2944;SDS011;1482;51.398;7.128;2022-12-10T03:08:05;78.40;;;31.40;;
2944;SDS011;1482;51.398;7.128;2022-12-10T03:10:41;75.90;;;32.40;;
2944;SDS011;1482;51.398;7.128;2022-12-10T03:13:21;71.17;;;30.90;;
2944;SDS011;1482;51.398;7.128;2022-12-10T03:15:53;74.93;;;32.10;;
2944;SDS011;1482;51.398;7.128;2022-12-10T03:18:19;65.87;;;32.90;;
2944;SDS011;1482;51.398;7.128;2022-12-10T03:20:48;62.27;;;32.23;;
2944;SDS011;1482;51.398;7.128;2022-12-10T03:23:17;61.97;;;32.00;;
2944;SDS011;1482;51.398;7.128;2022-12-10T03:25:44;74.60;;;33.90;;
2944;SDS011;1482;51.398;7.128;2022-12-10T03:28:13;58.00;;;28.07;;
2944;SDS011;1482;51.398;7.128;2022-12-10T03:30:40;57.23;;;25.67;;
2944;SDS011;1482;51.398;7.128;2022-12-10T03:33:08;61.27;;;26.37;;
2944;SDS011;1482;51.398;7.128;2022-12-10T03:35:34;62.00;;;25.73;;
2944;SDS011;1482;51.398;7.128;2022-12-10T03:38:00;52.80;;;24.60;;
2944;SDS011;1482;51.398;7.128;2022-12-10T03:40:26;55.53;;;25.97;;
2944;SDS011;1482;51.398;7.128;2022-12-10T03:42:52;56.53;;;25.57;;
2944;SDS011;1482;51.398;7.128;2022-12-10T03:45:17;53.67;;;25.27;;
2944;SDS011;1482;51.398;7.128;2022-12-10T03:47:43;48.20;;;25.00;;
2944;SDS011;1482;51.398;7.128;2022-12-10T03:50:09;41.23;;;23.37;;
2944;SDS011;1482;51.398;7.128;2022-12-10T03:52:35;57.30;;;27.17;;
2944;SDS011;1482;51.398;7.128;2022-12-10T03:55:01;48.53;;;26.40;;
2944;SDS011;1482;51.398;7.128;2022-12-10T03:57:28;43.20;;;23.00;;
2944;SDS011;1482;51.398;7.128;2022-12-10T03:59:53;41.10;;;23.67;;
2944;SDS011;1482;51.398;7.128;2022-12-10T04:02:19;41.27;;;21.00;;
2944;SDS011;1482;51.398;7.128;2022-12-10T04:04:44;30.17;;;18.27;;
2944;SDS011;1482;51.398;7.128;2022-12-10T04:07:10;34.77;;;21.87;;
2944;SDS011;1482;51.398;7.128;2022-12-10T04:09:36;39.23;;;22.73;;
2944;SDS011;1482;51.398;7.128;2022-12-10T04:12:01;44.50;;;24.93;;
2944;SDS011;1482;51.398;7.128;2022-12-10T04:14:27;42.83;;;22.80;;
2944;SDS011;1482;51.398;7.128;2022-12-10T04:17:11;34.17;;;21.37;;
2944;SDS011;1482;51.398;7.128;2022-12-10T04:19:37;35.77;;;20.73;;
2944;SDS011;1482;51.398;7.128;2022-12-10T04:22:03;38.10;;;23.37;;
2944;SDS011;1482;51.398;7.128;2022-12-10T04:24:47;38.80;;;20.70;;
2944;SDS011;1482;51.398;7.128;2022-12-10T04:27:33;38.83;;;20.27;;
2944;SDS011;1482;51.398;7.128;2022-12-10T04:30:03;32.57;;;19.77;;
2944;SDS011;1482;51.398;7.128;2022-12-10T04:32:31;35.43;;;21.83;;
2944;SDS011;1482;51.398;7.128;2022-12-10T04:34:57;44.87;;;24.37;;
2944;SDS011;1482;51.398;7.128;2022-12-10T04:37:25;39.23;;;22.07;;
2944;SDS011;1482;51.398;7.128;2022-12-10T04:39:52;34.13;;;17.97;;
2944;SDS011;1482;51.398;7.128;2022-12-10T04:42:18;30.37;;;19.13;;
2944;SDS011;1482;51.398;7.128;2022-12-10T04:44:44;30.67;;;18.67;;
2944;SDS011;1482;51.398;7.128;2022-12-10T04:47:10;35.87;;;18.73;;
2944;SDS011;1482;51.398;7.128;2022-12-10T04:49:37;52.37;;;28.80;;
2944;SDS011;1482;51.398;7.128;2022-12-10T04:52:03;54.07;;;28.37;;
2944;SDS011;1482;51.398;7.128;2022-12-10T04:54:29;43.80;;;25.27;;
2944;SDS011;1482;51.398;7.128;2022-12-10T04:56:55;47.37;;;25.53;;
2944;SDS011;1482;51.398;7.128;2022-12-10T04:59:21;51.93;;;26.60;;
2944;SDS011;1482;51.398;7.128;2022-12-10T05:01:47;48.80;;;26.47;;
2944;SDS011;1482;51.398;7.128;2022-12-10T05:04:14;48.73;;;26.40;;
2944;SDS011;1482;51.398;7.128;2022-12-10T05:06:41;43.30;;;26.43;;
2944;SDS011;1482;51.398;7.128;2022-12-10T05:09:07;53.80;;;26.40;;
2944;SDS011;1482;51.398;7.128;2022-12-10T05:11:35;57.07;;;26.67;;
2944;SDS011;1482;51.398;7.128;2022-12-10T05:14:01;46.30;;;26.33;;
2944;SDS011;1482;51.398;7.128;2022-12-10T05:16:28;46.00;;;25.20;;
2944;SDS011;1482;51.398;7.128;2022-12-10T05:18:55;45.20;;;24.53;;
2944;SDS011;1482;51.398;7.128;2022-12-10T05:21:21;45.63;;;24.23;;
2944;SDS011;1482;51.398;7.128;2022-12-10T05:23:49;44.33;;;24.77;;
2944;SDS011;1482;51.398;7.128;2022-12-10T05:26:17;47.07;;;26.60;;
2944;SDS011;1482;51.398;7.128;2022-12-10T05:28:51;44.57;;;25.37;;
2944;SDS011;1482;51.398;7.128;2022-12-10T05:31:28;51.40;;;27.27;;
2944;SDS011;1482;51.398;7.128;2022-12-10T05:33:54;42.07;;;23.67;;
2944;SDS011;1482;51.398;7.128;2022-12-10T05:36:22;39.40;;;22.50;;
2944;SDS011;1482;51.398;7.128;2022-12-10T05:38:50;40.83;;;19.63;;
2944;SDS011;1482;51.398;7.128;2022-12-10T05:41:18;54.87;;;21.53;;
2944;SDS011;1482;51.398;7.128;2022-12-10T05:43:45;34.13;;;20.17;;
2944;SDS011;1482;51.398;7.128;2022-12-10T05:46:12;42.57;;;19.70;;
2944;SDS011;1482;51.398;7.128;2022-12-10T05:48:39;43.73;;;24.17;;
2944;SDS011;1482;51.398;7.128;2022-12-10T05:51:06;39.23;;;22.63;;
2944;SDS011;1482;51.398;7.128;2022-12-10T05:53:33;43.80;;;23.23;;
2944;SDS011;1482;51.398;7.128;2022-12-10T05:56:03;43.90;;;23.97;;
2944;SDS011;1482;51.398;7.128;2022-12-10T05:58:37;48.80;;;25.93;;
2944;SDS011;1482;51.398;7.128;2022-12-10T06:01:07;38.93;;;21.47;;
2944;SDS011;1482;51.398;7.128;2022-12-10T06:03:40;40.57;;;23.03;;
2944;SDS011;1482;51.398;7.128;2022-12-10T06:06:07;48.20;;;25.20;;
2944;SDS011;1482;51.398;7.128;2022-12-10T06:08:33;39.83;;;21.67;;
2944;SDS011;1482;51.398;7.128;2022-12-10T06:11:04;34.80;;;18.60;;
2944;SDS011;1482;51.398;7.128;2022-12-10T06:13:31;39.33;;;20.73;;
2944;SDS011;1482;51.398;7.128;2022-12-10T06:15:57;51.23;;;22.80;;
2944;SDS011;1482;51.398;7.128;2022-12-10T06:18:23;44.80;;;22.93;;
2944;SDS011;1482;51.398;7.128;2022-12-10T06:20:49;34.10;;;19.50;;
2944;SDS011;1482;51.398;7.128;2022-12-10T06:23:14;39.97;;;23.80;;
2944;SDS011;1482;51.398;7.128;2022-12-10T06:25:40;47.13;;;24.40;;
2944;SDS011;1482;51.398;7.128;2022-12-10T06:28:06;40.20;;;23.60;;
2944;SDS011;1482;51.398;7.128;2022-12-10T06:30:32;48.00;;;24.70;;
2944;SDS011;1482;51.398;7.128;2022-12-10T06:32:58;49.50;;;25.03;;
2944;SDS011;1482;51.398;7.128;2022-12-10T06:35:24;43.80;;;25.27;;
2944;SDS011;1482;51.398;7.128;2022-12-10T06:37:50;44.50;;;23.60;;
2944;SDS011;1482;51.398;7.128;2022-12-10T06:40:15;41.73;;;22.33;;
2944;SDS011;1482;51.398;7.128;2022-12-10T06:42:41;42.27;;;24.37;;
2944;SDS011;1482;51.398;7.128;2022-12-10T06:45:07;55.00;;;26.30;;
2944;SDS011;1482;51.398;7.128;2022-12-10T06:47:33;49.60;;;26.00;;
2944;SDS011;1482;51.398;7.128;2022-12-10T06:49:59;46.03;;;24.40;;
2944;SDS011;1482;51.398;7.128;2022-12-10T06:52:24;47.73;;;24.40;;
2944;SDS011;1482;51.398;7.128;2022-12-10T06:54:50;43.70;;;22.13;;
2944;SDS011;1482;51.398;7.128;2022-12-10T06:57:15;52.63;;;24.67;;
2944;SDS011;1482;51.398;7.128;2022-12-10T06:59:41;41.00;;;22.20;;
2944;SDS011;1482;51.398;7.128;2022-12-10T07:02:07;49.73;;;27.03;;
2944;SDS011;1482;51.398;7.128;2022-12-10T07:04:36;69.53;;;30.53;;
2944;SDS011;1482;51.398;7.128;2022-12-10T07:07:02;64.43;;;31.93;;
2944;SDS011;1482;51.398;7.128;2022-12-10T07:09:27;57.50;;;29.03;;
2944;SDS011;1482;51.398;7.128;2022-12-10T07:11:53;53.97;;;28.10;;
2944;SDS011;1482;51.398;7.128;2022-12-10T07:14:18;74.40;;;34.70;;
2944;SDS011;1482;51.398;7.128;2022-12-10T07:16:44;73.17;;;35.93;;
2944;SDS011;1482;51.398;7.128;2022-12-10T07:19:10;82.73;;;33.90;;
2944;SDS011;1482;51.398;7.128;2022-12-10T07:21:37;73.00;;;30.43;;
2944;SDS011;1482;51.398;7.128;2022-12-10T07:24:07;63.33;;;29.07;;
2944;SDS011;1482;51.398;7.128;2022-12-10T07:26:36;54.43;;;27.57;;
2944;SDS011;1482;51.398;7.128;2022-12-10T07:29:04;66.73;;;29.87;;
2944;SDS011;1482;51.398;7.128;2022-12-10T07:31:30;59.53;;;28.97;;
2944;SDS011;1482;51.398;7.128;2022-12-10T07:33:57;62.83;;;26.87;;
2944;SDS011;1482;51.398;7.128;2022-12-10T07:36:23;55.40;;;28.20;;
2944;SDS011;1482;51.398;7.128;2022-12-10T07:38:50;63.87;;;30.30;;
2944;SDS011;1482;51.398;7.128;2022-12-10T07:41:17;65.33;;;30.20;;
2944;SDS011;1482;51.398;7.128;2022-12-10T07:43:43;64.97;;;32.67;;
2944;SDS011;1482;51.398;7.128;2022-12-10T07:46:11;72.93;;;30.23;;
2944;SDS011;1482;51.398;7.128;2022-12-10T07:48:37;68.67;;;32.07;;
2944;SDS011;1482;51.398;7.128;2022-12-10T07:51:03;79.03;;;32.47;;
2944;SDS011;1482;51.398;7.128;2022-12-10T07:53:30;77.73;;;34.53;;
2944;SDS011;1482;51.398;7.128;2022-12-10T07:55:56;76.83;;;33.93;;
2944;SDS011;1482;51.398;7.128;2022-12-10T07:58:22;78.13;;;35.67;;
2944;SDS011;1482;51.398;7.128;2022-12-10T08:00:47;90.13;;;33.50;;
2944;SDS011;1482;51.398;7.128;2022-12-10T08:03:13;89.83;;;32.70;;
2944;SDS011;1482;51.398;7.128;2022-12-10T08:05:38;87.87;;;35.30;;
2944;SDS011;1482;51.398;7.128;2022-12-10T08:08:04;79.57;;;33.97;;
2944;SDS011;1482;51.398;7.128;2022-12-10T08:10:29;91.63;;;36.87;;
2944;SDS011;1482;51.398;7.128;2022-12-10T08:12:58;75.53;;;35.40;;
2944;SDS011;1482;51.398;7.128;2022-12-10T08:15:23;60.90;;;28.50;;
2944;SDS011;1482;51.398;7.128;2022-12-10T08:17:49;63.27;;;29.40;;
2944;SDS011;1482;51.398;7.128;2022-12-10T08:20:14;65.10;;;30.90;;
2944;SDS011;1482;51.398;7.128;2022-12-10T08:22:40;58.67;;;27.83;;
2944;SDS011;1482;51.398;7.128;2022-12-10T08:25:05;67.50;;;30.63;;
2944;SDS011;1482;51.398;7.128;2022-12-10T08:27:31;55.43;;;27.60;;
2944;SDS011;1482;51.398;7.128;2022-12-10T08:29:57;67.43;;;31.27;;
2944;SDS011;1482;51.398;7.128;2022-12-10T08:32:22;66.90;;;31.17;;
2944;SDS011;1482;51.398;7.128;2022-12-10T08:34:48;59.10;;;29.40;;
2944;SDS011;1482;51.398;7.128;2022-12-10T08:37:13;72.17;;;32.50;;
2944;SDS011;1482;51.398;7.128;2022-12-10T08:39:39;81.93;;;33.37;;
2944;SDS011;1482;51.398;7.128;2022-12-10T08:42:05;74.63;;;32.67;;
2944;SDS011;1482;51.398;7.128;2022-12-10T08:44:31;75.97;;;31.20;;
2944;SDS011;1482;51.398;7.128;2022-12-10T08:46:57;66.70;;;30.13;;
2944;SDS011;1482;51.398;7.128;2022-12-10T08:49:22;71.43;;;28.00;;
2944;SDS011;1482;51.398;7.128;2022-12-10T08:51:48;72.47;;;27.57;;
2944;SDS011;1482;51.398;7.128;2022-12-10T08:54:13;70.37;;;30.53;;
2944;SDS011;1482;51.398;7.128;2022-12-10T08:56:39;82.50;;;32.90;;
2944;SDS011;1482;51.398;7.128;2022-12-10T08:59:05;79.50;;;35.50;;
2944;SDS011;1482;51.398;7.128;2022-12-10T09:01:31;82.10;;;35.40;;
2944;SDS011;1482;51.398;7.128;2022-12-10T09:03:57;70.70;;;32.40;;
2944;SDS011;1482;51.398;7.128;2022-12-10T09:06:22;72.47;;;31.30;;
2944;SDS011;1482;51.398;7.128;2022-12-10T09:08:49;84.80;;;34.63;;
2944;SDS011;1482;51.398;7.128;2022-12-10T09:11:19;79.40;;;33.47;;
2944;SDS011;1482;51.398;7.128;2022-12-10T09:13:47;86.97;;;33.20;;
2944;SDS011;1482;51.398;7.128;2022-12-10T09:16:12;87.30;;;33.40;;
2944;SDS011;1482;51.398;7.128;2022-12-10T09:18:38;74.47;;;33.33;;
2944;SDS011;1482;51.398;7.128;2022-12-10T09:21:05;87.50;;;36.63;;
2944;SDS011;1482;51.398;7.128;2022-12-10T09:23:37;65.57;;;31.07;;
2944;SDS011;1482;51.398;7.128;2022-12-10T09:26:10;72.23;;;35.30;;
2944;SDS011;1482;51.398;7.128;2022-12-10T09:28:38;81.87;;;33.50;;
2944;SDS011;1482;51.398;7.128;2022-12-10T09:31:05;76.10;;;35.57;;
2944;SDS011;1482;51.398;7.128;2022-12-10T09:33:31;80.67;;;34.70;;
2944;SDS011;1482;51.398;7.128;2022-12-10T09:35:57;73.57;;;32.87;;
2944;SDS011;1482;51.398;7.128;2022-12-10T09:38:23;69.73;;;30.93;;
2944;SDS011;1482;51.398;7.128;2022-12-10T09:40:59;74.03;;;33.80;;
2944;SDS011;1482;51.398;7.128;2022-12-10T09:51:35;82.83;;;34.27;;
2944;SDS011;1482;51.398;7.128;2022-12-10T09:54:03;71.73;;;35.37;;
2944;SDS011;1482;51.398;7.128;2022-12-10T09:56:40;72.33;;;34.30;;
2944;SDS011;1482;51.398;7.128;2022-12-10T09:59:29;61.87;;;32.57;;
2944;SDS011;1482;51.398;7.128;2022-12-10T10:04:46;67.37;;;32.47;;
2944;SDS011;1482;51.398;7.128;2022-12-10T10:07:30;76.40;;;35.43;;
2944;SDS011;1482;51.398;7.128;2022-12-10T10:09:59;77.90;;;33.37;;
2944;SDS011;1482;51.398;7.128;2022-12-10T10:12:30;68.90;;;31.50;;
2944;SDS011;1482;51.398;7.128;2022-12-10T10:14:58;69.70;;;32.67;;
2944;SDS011;1482;51.398;7.128;2022-12-10T10:17:37;74.17;;;35.67;;
2944;SDS011;1482;51.398;7.128;2022-12-10T10:20:03;75.67;;;37.93;;
2944;SDS011;1482;51.398;7.128;2022-12-10T10:22:30;68.10;;;34.87;;
2944;SDS011;1482;51.398;7.128;2022-12-10T10:24:56;79.80;;;39.33;;
2944;SDS011;1482;51.398;7.128;2022-12-10T10:27:26;66.30;;;34.23;;
2944;SDS011;1482;51.398;7.128;2022-12-10T10:29:56;62.20;;;32.63;;
2944;SDS011;1482;51.398;7.128;2022-12-10T10:32:24;83.63;;;35.73;;
2944;SDS011;1482;51.398;7.128;2022-12-10T10:34:54;80.43;;;35.17;;
2944;SDS011;1482;51.398;7.128;2022-12-10T10:37:26;79.00;;;34.17;;
2944;SDS011;1482;51.398;7.128;2022-12-10T10:40:25;70.00;;;34.90;;
2944;SDS011;1482;51.398;7.128;2022-12-10T10:43:04;69.03;;;32.73;;
2944;SDS011;1482;51.398;7.128;2022-12-10T10:48:12;73.83;;;38.87;;
2944;SDS011;1482;51.398;7.128;2022-12-10T10:50:49;78.00;;;35.50;;
2944;SDS011;1482;51.398;7.128;2022-12-10T10:55:54;82.50;;;38.80;;
2944;SDS011;1482;51.398;7.128;2022-12-10T10:58:35;83.30;;;37.33;;
2944;SDS011;1482;51.398;7.128;2022-12-10T11:01:08;79.90;;;38.60;;
2944;SDS011;1482;51.398;7.128;2022-12-10T11:03:35;81.87;;;41.30;;
2944;SDS011;1482;51.398;7.128;2022-12-10T11:06:09;77.10;;;36.80;;
2944;SDS011;1482;51.398;7.128;2022-12-10T11:08:37;73.73;;;39.97;;
2944;SDS011;1482;51.398;7.128;2022-12-10T11:11:06;78.80;;;38.27;;
2944;SDS011;1482;51.398;7.128;2022-12-10T11:13:50;76.77;;;36.40;;
2944;SDS011;1482;51.398;7.128;2022-12-10T11:16:23;77.30;;;37.03;;
2944;SDS011;1482;51.398;7.128;2022-12-10T11:21:21;74.40;;;37.40;;
2944;SDS011;1482;51.398;7.128;2022-12-10T11:23:48;72.03;;;34.27;;
2944;SDS011;1482;51.398;7.128;2022-12-10T11:26:22;75.20;;;33.67;;
2944;SDS011;1482;51.398;7.128;2022-12-10T11:29:28;72.60;;;34.77;;
2944;SDS011;1482;51.398;7.128;2022-12-10T11:32:07;128.33;;;55.67;;
2944;SDS011;1482;51.398;7.128;2022-12-10T11:34:39;127.30;;;54.17;;
2944;SDS011;1482;51.398;7.128;2022-12-10T11:37:29;72.57;;;34.77;;
2944;SDS011;1482;51.398;7.128;2022-12-10T11:40:06;74.00;;;35.90;;
2944;SDS011;1482;51.398;7.128;2022-12-10T11:47:45;87.50;;;43.43;;
2944;SDS011;1482;51.398;7.128;2022-12-10T12:15:16;63.77;;;30.90;;
2944;SDS011;1482;51.398;7.128;2022-12-10T12:18:07;72.67;;;32.23;;
2944;SDS011;1482;51.398;7.128;2022-12-10T12:20:49;62.30;;;31.37;;
2944;SDS011;1482;51.398;7.128;2022-12-10T12:26:08;68.67;;;32.13;;
2944;SDS011;1482;51.398;7.128;2022-12-10T12:28:43;65.37;;;30.63;;
2944;SDS011;1482;51.398;7.128;2022-12-10T12:31:18;66.67;;;35.80;;
2944;SDS011;1482;51.398;7.128;2022-12-10T12:33:49;68.63;;;32.07;;
2944;SDS011;1482;51.398;7.128;2022-12-10T12:36:20;77.43;;;34.53;;
2944;SDS011;1482;51.398;7.128;2022-12-10T12:44:14;89.50;;;39.73;;
2944;SDS011;1482;51.398;7.128;2022-12-10T12:46:49;70.10;;;33.67;;
2944;SDS011;1482;51.398;7.128;2022-12-10T12:49:20;68.00;;;32.13;;
2944;SDS011;1482;51.398;7.128;2022-12-10T12:52:25;71.30;;;32.57;;
2944;SDS011;1482;51.398;7.128;2022-12-10T12:55:05;67.23;;;32.57;;
2944;SDS011;1482;51.398;7.128;2022-12-10T12:58:36;62.30;;;30.70;;
2944;SDS011;1482;51.398;7.128;2022-12-10T13:01:19;75.00;;;31.20;;
2944;SDS011;1482;51.398;7.128;2022-12-10T13:03:49;67.37;;;31.47;;
2944;SDS011;1482;51.398;7.128;2022-12-10T13:11:37;59.53;;;29.10;;
2944;SDS011;1482;51.398;7.128;2022-12-10T13:24:18;57.57;;;29.83;;
2944;SDS011;1482;51.398;7.128;2022-12-10T13:29:55;59.10;;;30.03;;
2944;SDS011;1482;51.398;7.128;2022-12-10T13:42:39;57.17;;;32.00;;
2944;SDS011;1482;51.398;7.128;2022-12-10T13:45:29;51.13;;;25.70;;
2944;SDS011;1482;51.398;7.128;2022-12-10T13:48:23;46.10;;;24.00;;
2944;SDS011;1482;51.398;7.128;2022-12-10T13:56:29;44.33;;;25.10;;
2944;SDS011;1482;51.398;7.128;2022-12-10T14:08:33;56.73;;;27.27;;
2944;SDS011;1482;51.398;7.128;2022-12-10T14:11:02;58.40;;;26.40;;
2944;SDS011;1482;51.398;7.128;2022-12-10T14:13:44;57.10;;;27.43;;
2944;SDS011;1482;51.398;7.128;2022-12-10T14:16:15;60.13;;;29.80;;
2944;SDS011;1482;51.398;7.128;2022-12-10T14:18:44;58.50;;;25.50;;
2944;SDS011;1482;51.398;7.128;2022-12-10T14:21:20;54.97;;;29.00;;
2944;SDS011;1482;51.398;7.128;2022-12-10T14:23:47;58.03;;;28.17;;
2944;SDS011;1482;51.398;7.128;2022-12-10T14:28:55;57.40;;;24.70;;
2944;SDS011;1482;51.398;7.128;2022-12-10T14:31:44;56.43;;;27.93;;
2944;SDS011;1482;51.398;7.128;2022-12-10T14:34:15;55.90;;;27.40;;
2944;SDS011;1482;51.398;7.128;2022-12-10T14:36:50;60.07;;;29.90;;
2944;SDS011;1482;51.398;7.128;2022-12-10T14:41:45;47.90;;;26.70;;
2944;SDS011;1482;51.398;7.128;2022-12-10T14:44:14;57.70;;;29.07;;
2944;SDS011;1482;51.398;7.128;2022-12-10T14:46:41;40.40;;;22.90;;
2944;SDS011;1482;51.398;7.128;2022-12-10T14:52:08;50.47;;;24.93;;
2944;SDS011;1482;51.398;7.128;2022-12-10T14:54:40;49.50;;;26.33;;
2944;SDS011;1482;51.398;7.128;2022-12-10T14:57:07;51.10;;;27.30;;
2944;SDS011;1482;51.398;7.128;2022-12-10T14:59:39;52.13;;;26.10;;
2944;SDS011;1482;51.398;7.128;2022-12-10T15:02:20;49.90;;;25.57;;
2944;SDS011;1482;51.398;7.128;2022-12-10T15:04:51;59.07;;;27.50;;
2944;SDS011;1482;51.398;7.128;2022-12-10T15:07:19;58.57;;;30.10;;
2944;SDS011;1482;51.398;7.128;2022-12-10T15:09:47;66.90;;;25.40;;
2944;SDS011;1482;51.398;7.128;2022-12-10T15:12:57;58.67;;;27.93;;
2944;SDS011;1482;51.398;7.128;2022-12-10T15:15:19;66.50;;;30.20;;
2944;SDS011;1482;51.398;7.128;2022-12-10T15:18:00;60.67;;;27.37;;
2944;SDS011;1482;51.398;7.128;2022-12-10T15:20:50;62.93;;;28.07;;
2944;SDS011;1482;51.398;7.128;2022-12-10T15:23:19;72.07;;;34.47;;
2944;SDS011;1482;51.398;7.128;2022-12-10T15:25:59;63.83;;;29.67;;
2944;SDS011;1482;51.398;7.128;2022-12-10T15:30:56;63.60;;;30.77;;
2944;SDS011;1482;51.398;7.128;2022-12-10T15:33:36;66.97;;;34.47;;
2944;SDS011;1482;51.398;7.128;2022-12-10T15:36:15;69.03;;;32.77;;
2944;SDS011;1482;51.398;7.128;2022-12-10T15:39:10;74.17;;;30.93;;
2944;SDS011;1482;51.398;7.128;2022-12-10T15:46:58;72.07;;;32.83;;
2944;SDS011;1482;51.398;7.128;2022-12-10T15:49:23;67.87;;;29.80;;
2944;SDS011;1482;51.398;7.128;2022-12-10T15:51:49;61.17;;;25.30;;
2944;SDS011;1482;51.398;7.128;2022-12-10T15:54:32;64.60;;;29.07;;
2944;SDS011;1482;51.398;7.128;2022-12-10T15:57:00;69.63;;;30.43;;
2944;SDS011;1482;51.398;7.128;2022-12-10T15:59:39;63.33;;;32.80;;
2944;SDS011;1482;51.398;7.128;2022-12-10T16:02:14;64.33;;;28.93;;
2944;SDS011;1482;51.398;7.128;2022-12-10T16:04:44;66.07;;;29.67;;
2944;SDS011;1482;51.398;7.128;2022-12-10T16:07:09;63.13;;;26.83;;
2944;SDS011;1482;51.398;7.128;2022-12-10T16:09:35;55.17;;;26.00;;
2944;SDS011;1482;51.398;7.128;2022-12-10T16:12:00;56.30;;;25.00;;
2944;SDS011;1482;51.398;7.128;2022-12-10T16:14:26;60.67;;;23.47;;
2944;SDS011;1482;51.398;7.128;2022-12-10T16:16:51;54.57;;;24.80;;
2944;SDS011;1482;51.398;7.128;2022-12-10T16:19:17;56.10;;;26.03;;
2944;SDS011;1482;51.398;7.128;2022-12-10T16:21:43;57.57;;;25.13;;
2944;SDS011;1482;51.398;7.128;2022-12-10T16:24:08;73.40;;;28.30;;
2944;SDS011;1482;51.398;7.128;2022-12-10T16:26:34;63.33;;;29.00;;
2944;SDS011;1482;51.398;7.128;2022-12-10T16:28:59;68.00;;;30.03;;
2944;SDS011;1482;51.398;7.128;2022-12-10T16:31:25;63.87;;;29.80;;
2944;SDS011;1482;51.398;7.128;2022-12-10T16:33:51;64.50;;;28.47;;
2944;SDS011;1482;51.398;7.128;2022-12-10T16:36:17;66.23;;;30.27;;
2944;SDS011;1482;51.398;7.128;2022-12-10T16:38:43;64.50;;;27.87;;
2944;SDS011;1482;51.398;7.128;2022-12-10T16:41:26;60.63;;;29.67;;
2944;SDS011;1482;51.398;7.128;2022-12-10T16:43:53;60.90;;;29.67;;
2944;SDS011;1482;51.398;7.128;2022-12-10T16:46:19;66.97;;;32.23;;
2944;SDS011;1482;51.398;7.128;2022-12-10T16:48:44;75.63;;;34.00;;
2944;SDS011;1482;51.398;7.128;2022-12-10T16:51:20;65.23;;;27.00;;
2944;SDS011;1482;51.398;7.128;2022-12-10T16:53:48;65.43;;;30.30;;
2944;SDS011;1482;51.398;7.128;2022-12-10T16:56:14;87.53;;;33.67;;
2944;SDS011;1482;51.398;7.128;2022-12-10T16:58:41;68.50;;;34.10;;
2944;SDS011;1482;51.398;7.128;2022-12-10T17:01:13;71.63;;;33.17;;
2944;SDS011;1482;51.398;7.128;2022-12-10T17:03:44;73.30;;;31.33;;
2944;SDS011;1482;51.398;7.128;2022-12-10T17:06:10;82.83;;;31.80;;
2944;SDS011;1482;51.398;7.128;2022-12-10T17:08:36;77.53;;;32.13;;
2944;SDS011;1482;51.398;7.128;2022-12-10T17:11:04;79.07;;;32.77;;
2944;SDS011;1482;51.398;7.128;2022-12-10T17:14:04;58.63;;;31.73;;
2944;SDS011;1482;51.398;7.128;2022-12-10T17:16:34;83.07;;;33.40;;
2944;SDS011;1482;51.398;7.128;2022-12-10T17:18:59;87.33;;;33.77;;